createdAt,value
2018-08-20T00:01:30.835Z,21.43
2018-08-20T00:04:05.564Z,21.41
2018-08-20T00:06:46.103Z,21.39
2018-08-20T00:09:14.812Z,21.39
2018-08-20T00:11:43.481Z,21.35
2018-08-20T00:14:12.061Z,21.28
2018-08-20T00:16:40.643Z,21.19
2018-08-20T00:19:13.505Z,21.16
2018-08-20T00:21:43.533Z,21.12
2018-08-20T00:24:12.192Z,21.08
2018-08-20T00:26:40.795Z,21.07
2018-08-20T00:29:09.868Z,21.06
2018-08-20T00:31:38.496Z,21.06
2018-08-20T00:34:07.158Z,21.08
2018-08-20T00:36:35.700Z,21.09
2018-08-20T00:39:06.069Z,21.10
2018-08-20T00:41:34.693Z,21.06
2018-08-20T00:44:04.841Z,21.04
2018-08-20T00:46:33.424Z,21.02
2018-08-20T00:49:01.987Z,21.03
2018-08-20T00:51:30.955Z,21.00
2018-08-20T00:53:59.523Z,20.97
2018-08-20T00:56:28.203Z,20.99
2018-08-20T00:58:56.743Z,20.94
2018-08-20T01:01:25.306Z,20.95
2018-08-20T01:04:00.314Z,20.91
2018-08-20T01:06:29.180Z,20.80
2018-08-20T01:08:57.792Z,20.78
2018-08-20T01:11:26.365Z,20.66
2018-08-20T01:13:54.935Z,20.59
2018-08-20T01:16:23.508Z,20.53
2018-08-20T01:18:52.296Z,20.51
2018-08-20T01:21:20.920Z,20.53
2018-08-20T01:23:49.455Z,20.48
2018-08-20T01:26:18.048Z,20.46
2018-08-20T01:28:46.596Z,20.41
2018-08-20T01:31:15.186Z,20.40
2018-08-20T01:33:43.810Z,20.42
2018-08-20T01:36:14.466Z,20.42
2018-08-20T01:38:43.910Z,20.41
2018-08-20T01:41:12.538Z,20.37
2018-08-20T01:43:41.188Z,20.30
2018-08-20T01:46:09.877Z,20.26
2018-08-20T01:48:38.436Z,20.24
2018-08-20T01:51:07.041Z,20.25
2018-08-20T01:53:35.607Z,20.23
2018-08-20T01:56:04.163Z,20.28
2018-08-20T01:58:32.751Z,20.30
2018-08-20T02:03:51.804Z,20.24
2018-08-20T02:06:21.902Z,20.13
2018-08-20T02:08:50.488Z,20.03
2018-08-20T02:11:19.202Z,19.98
2018-08-20T02:13:47.807Z,19.96
2018-08-20T02:16:17.007Z,19.97
2018-08-20T02:18:45.601Z,19.93
2018-08-20T02:21:14.619Z,19.91
2018-08-20T02:23:43.224Z,19.91
2018-08-20T02:26:11.803Z,19.92
2018-08-20T02:28:40.375Z,19.89
2018-08-20T02:31:08.933Z,19.77
2018-08-20T02:33:37.556Z,19.73
2018-08-20T02:36:06.146Z,19.75
2018-08-20T02:38:34.711Z,19.73
2018-08-20T02:41:05.741Z,19.74
2018-08-20T02:43:34.324Z,19.73
2018-08-20T02:46:02.992Z,19.70
2018-08-20T02:48:31.628Z,19.68
2018-08-20T02:51:00.181Z,19.63
2018-08-20T02:53:28.764Z,19.50
2018-08-20T02:55:57.371Z,19.46
2018-08-20T02:58:25.920Z,19.49
2018-08-20T03:00:54.643Z,19.53
2018-08-20T03:03:23.238Z,19.46
2018-08-20T03:05:51.795Z,19.50
2018-08-20T03:08:20.402Z,19.56
2018-08-20T03:10:49.531Z,19.53
2018-08-20T03:13:18.948Z,19.51
2018-08-20T03:15:47.744Z,19.52
2018-08-20T03:18:16.313Z,19.53
2018-08-20T03:20:44.847Z,19.52
2018-08-20T03:23:13.468Z,19.50
2018-08-20T03:25:42.011Z,19.42
2018-08-20T03:28:11.178Z,19.34
2018-08-20T03:30:39.845Z,19.30
2018-08-20T03:33:08.502Z,19.20
2018-08-20T03:35:37.067Z,19.18
2018-08-20T03:38:05.668Z,19.18
2018-08-20T03:40:34.224Z,19.18
2018-08-20T03:43:02.856Z,19.21
2018-08-20T03:45:31.454Z,19.19
2018-08-20T03:48:00.080Z,19.16
2018-08-20T03:50:28.808Z,19.11
2018-08-20T03:52:57.351Z,19.03
2018-08-20T03:55:25.873Z,18.99
2018-08-20T03:57:54.423Z,19.03
2018-08-20T04:00:25.087Z,19.00
2018-08-20T04:02:54.839Z,18.94
2018-08-20T04:05:23.404Z,18.81
2018-08-20T04:07:51.967Z,18.72
2018-08-20T04:10:20.532Z,18.69
2018-08-20T04:15:40.039Z,18.61
2018-08-20T04:18:08.852Z,18.51
2018-08-20T04:20:37.415Z,18.48
2018-08-20T04:23:06.179Z,18.50
2018-08-20T04:25:35.086Z,18.53
2018-08-20T04:28:03.716Z,18.53
2018-08-20T04:30:32.362Z,18.58
2018-08-20T04:33:00.912Z,18.61
2018-08-20T04:35:29.592Z,18.51
2018-08-20T04:37:58.140Z,18.49
2018-08-20T04:40:26.837Z,18.54
2018-08-20T04:45:45.899Z,18.67
2018-08-20T04:48:14.441Z,18.64
2018-08-20T04:50:43.053Z,18.71
2018-08-20T04:53:11.573Z,18.82
2018-08-20T04:55:40.149Z,18.87
2018-08-20T04:58:08.734Z,18.93
2018-08-20T05:00:37.341Z,19.01
2018-08-20T05:03:06.457Z,19.10
2018-08-20T05:05:35.063Z,19.19
2018-08-20T05:08:03.602Z,19.22
2018-08-20T05:10:32.155Z,19.30
2018-08-20T05:13:00.713Z,19.33
2018-08-20T05:15:29.308Z,19.36
2018-08-20T05:17:57.884Z,19.41
2018-08-20T05:20:26.415Z,19.47
2018-08-20T05:22:55.106Z,19.52
2018-08-20T05:25:23.662Z,19.57
2018-08-20T05:27:52.205Z,19.63
2018-08-20T05:30:20.793Z,19.71
2018-08-20T05:32:49.359Z,19.78
2018-08-20T05:35:18.236Z,19.85
2018-08-20T05:37:46.801Z,19.95
2018-08-20T05:40:15.345Z,20.08
2018-08-20T05:42:43.929Z,20.22
2018-08-20T05:45:12.941Z,20.37
2018-08-20T05:47:41.567Z,20.44
2018-08-20T05:50:10.966Z,20.51
2018-08-20T05:52:39.574Z,20.52
2018-08-20T05:55:08.196Z,20.57
2018-08-20T05:57:36.813Z,20.63
2018-08-20T06:00:09.774Z,20.71
2018-08-20T06:02:38.344Z,20.79
2018-08-20T06:05:06.960Z,20.89
2018-08-20T06:07:35.508Z,21.00
2018-08-20T06:10:04.148Z,21.07
2018-08-20T06:12:32.842Z,21.18
2018-08-20T06:15:01.504Z,21.29
2018-08-20T06:17:30.077Z,21.40
2018-08-20T06:19:58.662Z,21.52
2018-08-20T06:22:27.282Z,21.64
2018-08-20T06:24:55.903Z,21.79
2018-08-20T06:27:24.435Z,21.90
2018-08-20T06:29:53.001Z,22.05
2018-08-20T06:32:21.608Z,22.20
2018-08-20T06:34:51.078Z,22.40
2018-08-20T06:37:19.664Z,22.62
2018-08-20T06:39:48.289Z,22.83
2018-08-20T06:42:16.853Z,23.04
2018-08-20T06:44:45.451Z,23.21
2018-08-20T06:47:15.250Z,23.29
2018-08-20T06:49:43.836Z,23.54
2018-08-20T06:52:12.429Z,23.74
2018-08-20T06:54:41.008Z,23.99
2018-08-20T06:57:10.204Z,24.13
2018-08-20T06:59:38.747Z,24.30
2018-08-20T07:02:07.343Z,24.45
2018-08-20T07:04:35.939Z,24.66
2018-08-20T07:07:04.499Z,24.77
2018-08-20T07:09:33.140Z,24.89
2018-08-20T07:12:01.714Z,25.07
2018-08-20T07:14:30.427Z,25.24
2018-08-20T07:16:59.041Z,25.37
2018-08-20T07:22:30.878Z,25.77
2018-08-20T07:24:59.432Z,25.93
2018-08-20T07:27:27.955Z,26.02
2018-08-20T07:29:56.563Z,26.02
2018-08-20T07:32:25.275Z,26.01
2018-08-20T07:34:53.840Z,26.14
2018-08-20T07:37:22.398Z,26.23
2018-08-20T07:39:50.999Z,26.43
2018-08-20T07:42:19.580Z,26.50
2018-08-20T07:44:48.136Z,26.56
2018-08-20T07:47:16.709Z,26.54
2018-08-20T07:49:45.305Z,26.67
2018-08-20T07:52:14.766Z,26.91
2018-08-20T07:54:43.322Z,26.94
2018-08-20T07:57:13.163Z,27.06
2018-08-20T07:59:41.772Z,27.15
2018-08-20T08:02:10.366Z,27.28
2018-08-20T08:04:38.922Z,27.47
2018-08-20T08:07:07.507Z,27.43
2018-08-20T08:09:36.110Z,27.45
2018-08-20T08:12:04.717Z,27.65
2018-08-20T08:14:33.335Z,27.58
2018-08-20T08:17:01.938Z,27.83
2018-08-20T08:19:30.615Z,27.94
2018-08-20T08:21:59.265Z,28.11
2018-08-20T08:24:27.956Z,28.28
2018-08-20T08:26:56.785Z,28.27
2018-08-20T08:29:25.482Z,28.21
2018-08-20T08:31:54.271Z,28.37
2018-08-20T08:34:23.057Z,28.50
2018-08-20T08:36:51.640Z,28.66
2018-08-20T08:39:20.388Z,28.74
2018-08-20T08:41:49.296Z,28.72
2018-08-20T08:44:18.185Z,28.69
2018-08-20T08:46:46.812Z,28.85
2018-08-20T08:49:15.601Z,28.93
2018-08-20T08:51:44.217Z,29.08
2018-08-20T08:54:12.804Z,29.13
2018-08-20T08:56:41.400Z,29.21
2018-08-20T08:59:10.006Z,29.34
2018-08-20T09:01:38.596Z,29.53
2018-08-20T09:04:08.051Z,29.74
2018-08-20T09:06:36.622Z,29.70
2018-08-20T09:09:07.070Z,29.72
2018-08-20T09:11:36.085Z,29.66
2018-08-20T09:14:06.051Z,29.73
2018-08-20T09:16:34.689Z,29.85
2018-08-20T09:19:03.400Z,30.12
2018-08-20T09:21:31.965Z,30.27
2018-08-20T09:24:00.668Z,30.32
2018-08-20T09:26:29.427Z,30.15
2018-08-20T09:28:59.150Z,30.18
2018-08-20T09:31:27.872Z,30.25
2018-08-20T09:33:56.501Z,30.43
2018-08-20T09:36:25.145Z,30.68
2018-08-20T09:38:53.748Z,30.90
2018-08-20T09:41:22.416Z,30.95
2018-08-20T09:43:51.270Z,31.23
2018-08-20T09:46:19.727Z,31.11
2018-08-20T09:48:48.273Z,31.03
2018-08-20T09:51:17.005Z,30.99
2018-08-20T09:53:45.609Z,30.43
2018-08-20T09:56:14.218Z,30.23
2018-08-20T09:58:42.808Z,30.33
2018-08-20T10:01:11.391Z,30.41
2018-08-20T10:03:45.732Z,30.50
2018-08-20T10:06:15.440Z,30.59
2018-08-20T10:08:44.458Z,30.72
2018-08-20T10:11:13.954Z,30.85
2018-08-20T10:13:42.579Z,31.21
2018-08-20T10:16:11.324Z,31.61
2018-08-20T10:18:40.714Z,31.97
2018-08-20T10:21:09.348Z,32.14
2018-08-20T10:23:37.964Z,32.29
2018-08-20T10:26:07.295Z,32.48
2018-08-20T10:28:35.938Z,32.60
2018-08-20T10:31:04.589Z,32.33
2018-08-20T10:33:33.188Z,32.22
2018-08-20T10:36:03.251Z,31.88
2018-08-20T10:38:31.810Z,31.62
2018-08-20T10:41:00.364Z,31.47
2018-08-20T10:43:28.957Z,31.39
2018-08-20T10:46:02.659Z,31.41
2018-08-20T10:48:31.290Z,31.48
2018-08-20T10:50:59.903Z,31.62
2018-08-20T10:53:28.517Z,31.94
2018-08-20T10:55:57.156Z,32.07
2018-08-20T10:58:25.792Z,31.86
2018-08-20T11:00:54.343Z,31.51
2018-08-20T11:03:22.937Z,31.59
2018-08-20T11:05:51.595Z,31.46
2018-08-20T11:08:20.156Z,31.50
2018-08-20T11:10:48.794Z,31.55
2018-08-20T11:13:17.375Z,31.55
2018-08-20T11:15:45.977Z,31.54
2018-08-20T11:18:14.630Z,31.40
2018-08-20T11:20:43.174Z,31.31
2018-08-20T11:23:11.790Z,31.29
2018-08-20T11:25:40.401Z,31.28
2018-08-20T11:28:08.961Z,31.05
2018-08-20T11:30:37.524Z,30.93
2018-08-20T11:33:06.201Z,30.94
2018-08-20T11:35:34.811Z,30.72
2018-08-20T11:38:03.476Z,30.68
2018-08-20T11:40:32.270Z,30.62
2018-08-20T11:43:00.889Z,30.50
2018-08-20T11:45:29.478Z,30.52
2018-08-20T11:47:58.377Z,30.43
2018-08-20T11:50:27.335Z,30.31
2018-08-20T11:52:55.980Z,30.32
2018-08-20T11:55:24.668Z,30.31
2018-08-20T11:57:53.300Z,30.16
2018-08-20T12:00:21.883Z,30.27
2018-08-20T12:02:51.080Z,30.31
2018-08-20T12:05:19.696Z,30.25
2018-08-20T12:07:48.675Z,30.34
2018-08-20T12:10:18.111Z,30.44
2018-08-20T12:29:51.662Z,30.76
2018-08-20T12:32:20.200Z,30.76
2018-08-20T12:34:48.756Z,30.66
2018-08-20T12:37:17.326Z,30.38
2018-08-20T12:39:45.879Z,30.15
2018-08-20T12:42:14.553Z,29.80
2018-08-20T12:44:43.123Z,29.89
2018-08-20T12:47:12.069Z,29.76
2018-08-20T12:49:40.622Z,29.79
2018-08-20T12:52:09.509Z,30.00
2018-08-20T12:54:38.084Z,30.02
2018-08-20T12:57:06.699Z,30.11
2018-08-20T12:59:35.444Z,30.08
2018-08-20T13:02:04.047Z,30.01
2018-08-20T13:04:32.650Z,30.16
2018-08-20T13:07:01.295Z,30.11
2018-08-20T13:09:29.895Z,29.97
2018-08-20T13:11:58.505Z,29.93
2018-08-20T13:14:27.060Z,30.01
2018-08-20T13:16:55.648Z,30.17
2018-08-20T13:19:24.234Z,30.31
2018-08-20T13:21:53.039Z,30.33
2018-08-20T13:24:21.618Z,29.97
2018-08-20T13:26:50.229Z,29.73
2018-08-20T13:29:18.803Z,29.63
2018-08-20T13:31:47.378Z,29.60
2018-08-20T13:34:16.803Z,29.63
2018-08-20T13:36:45.369Z,29.62
2018-08-20T13:39:16.012Z,29.74
2018-08-20T13:41:44.564Z,29.76
2018-08-20T13:44:13.201Z,29.66
2018-08-20T13:46:41.774Z,29.76
2018-08-20T13:49:10.463Z,29.78
2018-08-20T13:51:39.116Z,29.74
2018-08-20T13:54:07.709Z,29.72
2018-08-20T13:56:36.352Z,29.79
2018-08-20T13:59:05.263Z,29.88
2018-08-20T14:01:33.847Z,29.96
2018-08-20T14:04:02.396Z,29.94
2018-08-20T14:06:30.950Z,29.97
2018-08-20T14:08:59.569Z,30.08
2018-08-20T14:11:28.161Z,30.10
2018-08-20T14:13:56.750Z,30.20
2018-08-20T14:16:25.351Z,30.56
2018-08-20T14:18:54.309Z,31.03
2018-08-20T14:21:23.024Z,31.37
2018-08-20T14:23:51.629Z,31.53
2018-08-20T14:26:20.189Z,31.54
2018-08-20T14:28:48.768Z,31.60
2018-08-20T14:31:17.372Z,31.71
2018-08-20T14:33:45.972Z,31.66
2018-08-20T14:36:14.683Z,31.61
2018-08-20T14:38:43.311Z,31.45
2018-08-20T14:41:12.183Z,31.30
2018-08-20T14:43:40.780Z,31.18
2018-08-20T14:46:14.580Z,30.99
2018-08-20T14:48:43.324Z,30.91
2018-08-20T14:51:12.131Z,30.74
2018-08-20T14:53:40.669Z,30.70
2018-08-20T14:56:09.240Z,30.70
2018-08-20T14:58:37.849Z,30.66
2018-08-20T15:01:06.696Z,30.73
2018-08-20T15:03:35.276Z,30.77
2018-08-20T15:06:03.800Z,30.84
2018-08-20T15:08:32.593Z,30.73
2018-08-20T15:11:01.180Z,30.65
2018-08-20T15:13:29.733Z,30.64
2018-08-20T15:15:58.343Z,30.63
2018-08-20T15:19:11.253Z,30.64
2018-08-20T15:21:39.815Z,30.57
2018-08-20T15:24:08.580Z,30.47
2018-08-20T15:26:37.281Z,30.52
2018-08-20T15:29:06.102Z,30.53
2018-08-20T15:31:34.656Z,30.47
2018-08-20T15:34:03.273Z,30.36
2018-08-20T15:36:31.865Z,30.37
2018-08-20T15:39:00.858Z,30.43
2018-08-20T15:41:29.501Z,30.45
2018-08-20T15:43:58.107Z,30.42
2018-08-20T15:46:26.700Z,30.42
2018-08-20T15:48:55.309Z,30.34
2018-08-20T15:51:24.733Z,30.28
2018-08-20T15:53:53.347Z,30.22
2018-08-20T15:56:21.974Z,30.19
2018-08-20T15:58:50.522Z,30.08
2018-08-20T16:01:19.086Z,30.09
2018-08-20T16:03:47.718Z,30.35
2018-08-20T16:06:16.272Z,30.47
2018-08-20T16:08:44.837Z,30.66
2018-08-20T16:11:13.662Z,30.82
2018-08-20T16:13:42.432Z,31.00
2018-08-20T16:16:11.565Z,31.17
2018-08-20T16:21:42.465Z,30.69
2018-08-20T16:24:11.241Z,30.83
2018-08-20T16:26:39.804Z,30.81
2018-08-20T16:29:08.410Z,30.67
2018-08-20T16:31:37.281Z,30.61
2018-08-20T16:34:05.960Z,30.52
2018-08-20T16:36:34.830Z,30.31
2018-08-20T16:39:04.805Z,30.07
2018-08-20T16:41:33.399Z,29.95
2018-08-20T16:44:02.008Z,29.84
2018-08-20T16:46:30.627Z,29.72
2018-08-20T16:48:59.382Z,29.54
2018-08-20T16:51:28.131Z,29.53
2018-08-20T16:53:56.809Z,29.53
2018-08-20T16:56:25.462Z,29.42
2018-08-20T16:58:54.199Z,29.29
2018-08-20T17:01:22.799Z,29.22
2018-08-20T17:03:51.384Z,29.22
2018-08-20T17:06:20.002Z,29.16
2018-08-20T17:08:48.588Z,29.04
2018-08-20T17:11:17.185Z,28.95
2018-08-20T17:13:45.859Z,28.90
2018-08-20T17:16:22.110Z,28.73
2018-08-20T17:18:50.705Z,28.63
2018-08-20T17:21:19.479Z,28.52
2018-08-20T17:23:47.992Z,28.41
2018-08-20T17:26:16.680Z,28.35
2018-08-20T17:28:45.233Z,28.29
2018-08-20T17:31:13.959Z,28.25
2018-08-20T17:33:42.489Z,28.19
2018-08-20T17:36:11.057Z,28.17
2018-08-20T17:38:39.743Z,28.17
2018-08-20T17:41:09.411Z,28.13
2018-08-20T17:43:38.026Z,28.09
2018-08-20T17:46:06.676Z,27.98
2018-08-20T17:48:35.225Z,27.94
2018-08-20T17:51:03.915Z,27.89
2018-08-20T17:53:43.699Z,27.86
2018-08-20T17:56:12.300Z,27.81
2018-08-20T17:58:40.861Z,27.75
2018-08-20T18:01:09.495Z,27.70
2018-08-20T18:03:38.672Z,27.67
2018-08-20T18:06:09.361Z,27.54
2018-08-20T18:08:38.226Z,27.35
2018-08-20T18:11:08.053Z,27.15
2018-08-20T18:13:45.431Z,27.05
2018-08-20T18:16:15.379Z,26.98
2018-08-20T18:18:52.567Z,26.86
2018-08-20T18:21:21.168Z,26.75
2018-08-20T18:23:49.845Z,26.62
2018-08-20T18:26:18.439Z,26.47
2018-08-20T18:28:51.919Z,26.22
2018-08-20T18:31:23.200Z,25.99
2018-08-20T18:33:51.828Z,25.85
2018-08-20T18:36:21.662Z,25.70
2018-08-20T18:38:53.927Z,25.46
2018-08-20T18:42:00.221Z,25.31
2018-08-20T18:44:28.843Z,25.28
2018-08-20T18:46:57.420Z,25.24
2018-08-20T18:49:26.063Z,25.28
2018-08-20T18:52:17.330Z,25.32
2018-08-20T18:54:50.152Z,25.33
2018-08-20T18:57:21.361Z,25.24
2018-08-20T18:59:50.098Z,25.18
2018-08-20T19:02:38.678Z,25.18
2018-08-20T19:05:10.261Z,25.09
2018-08-20T19:07:39.106Z,25.00
2018-08-20T19:10:16.503Z,24.97
2018-08-20T19:12:45.403Z,25.03
2018-08-20T19:15:28.081Z,25.03
2018-08-20T19:17:56.683Z,24.97
2018-08-20T19:20:25.316Z,24.97
2018-08-20T19:22:53.876Z,24.92
2018-08-20T19:25:22.581Z,24.90
2018-08-20T19:27:51.153Z,24.80
2018-08-20T19:30:22.975Z,24.74
2018-08-20T19:32:51.528Z,24.71
2018-08-20T19:35:20.129Z,24.69
2018-08-20T19:37:49.186Z,24.64
2018-08-20T19:40:17.932Z,24.54
2018-08-20T19:42:46.623Z,24.49
2018-08-20T19:45:15.232Z,24.48
2018-08-20T19:47:44.052Z,24.44
2018-08-20T19:50:13.244Z,24.31
2018-08-20T19:52:42.216Z,24.17
2018-08-20T19:55:13.008Z,24.11
2018-08-20T19:57:41.713Z,24.02
2018-08-20T20:00:12.549Z,23.92
2018-08-20T20:02:42.884Z,23.82
2018-08-20T20:05:14.963Z,23.84
2018-08-20T20:07:56.416Z,23.86
2018-08-20T20:10:25.026Z,23.75
2018-08-20T20:12:55.643Z,23.66
2018-08-20T20:15:25.061Z,23.63
2018-08-20T20:17:54.852Z,23.51
2018-08-20T20:20:23.470Z,23.49
2018-08-20T20:22:52.075Z,23.49
2018-08-20T20:25:21.122Z,23.51
2018-08-20T20:27:49.685Z,23.42
2018-08-20T20:30:18.277Z,23.34
2018-08-20T20:32:46.837Z,23.20
2018-08-20T20:35:15.574Z,23.12
2018-08-20T20:37:44.168Z,23.08
2018-08-20T20:40:12.766Z,23.00
2018-08-20T20:42:41.347Z,22.99
2018-08-20T20:45:10.051Z,22.99
2018-08-20T20:47:38.716Z,23.01
2018-08-20T20:50:07.472Z,23.09
2018-08-20T20:52:36.109Z,23.17
2018-08-20T20:55:04.952Z,23.23
2018-08-20T20:57:33.525Z,23.28
2018-08-20T21:00:02.150Z,23.28
2018-08-20T21:02:30.867Z,23.22
2018-08-20T21:05:04.714Z,23.16
2018-08-20T21:07:33.936Z,23.09
2018-08-20T21:10:02.498Z,23.08
2018-08-20T21:12:31.844Z,23.10
2018-08-20T21:15:00.436Z,23.13
2018-08-20T21:17:30.084Z,23.17
2018-08-20T21:19:58.685Z,23.16
2018-08-20T21:22:27.287Z,23.10
2018-08-20T21:24:56.005Z,23.05
2018-08-20T21:27:26.779Z,23.01
2018-08-20T21:29:58.769Z,22.99
2018-08-20T21:32:27.396Z,22.94
2018-08-20T21:34:56.014Z,22.91
2018-08-20T21:37:24.677Z,22.84
2018-08-20T21:39:54.025Z,22.75
2018-08-20T21:42:32.420Z,22.71
2018-08-20T21:45:00.971Z,22.65
2018-08-20T21:47:31.070Z,22.61
2018-08-20T21:49:59.759Z,22.55
2018-08-20T21:52:28.453Z,22.46
2018-08-20T21:54:57.931Z,22.41
2018-08-20T21:57:26.524Z,22.34
2018-08-20T22:00:11.790Z,22.24
2018-08-20T22:02:40.491Z,22.21
2018-08-20T22:05:09.127Z,22.21
2018-08-20T22:07:37.900Z,22.26
2018-08-20T22:10:06.515Z,22.28
2018-08-20T22:12:35.123Z,22.29
2018-08-20T22:15:04.103Z,22.26
2018-08-20T22:20:47.481Z,22.23
2018-08-20T22:23:25.273Z,22.17
2018-08-20T22:25:47.768Z,22.11
2018-08-20T22:28:16.323Z,22.05
2018-08-20T22:30:49.300Z,22.01
2018-08-20T22:33:18.561Z,21.96
2018-08-20T22:35:47.231Z,21.96
2018-08-20T22:38:15.874Z,21.93
2018-08-20T22:40:44.672Z,22.01
2018-08-20T22:43:13.330Z,22.10
2018-08-20T22:45:42.013Z,22.12
2018-08-20T22:48:10.591Z,22.12
2018-08-20T22:50:41.246Z,22.10
2018-08-20T22:53:09.942Z,22.11
2018-08-20T22:55:44.313Z,22.03
2018-08-20T22:58:12.922Z,22.04
2018-08-20T23:00:41.656Z,22.06
2018-08-20T23:03:10.237Z,22.12
2018-08-20T23:05:38.835Z,22.17
2018-08-20T23:08:12.655Z,22.23
2018-08-20T23:10:43.033Z,22.26
2018-08-20T23:13:11.661Z,22.31
2018-08-20T23:15:40.369Z,22.37
2018-08-20T23:18:09.031Z,22.41
2018-08-20T23:20:37.739Z,22.41
2018-08-20T23:23:06.491Z,22.44
2018-08-20T23:25:35.074Z,22.47
2018-08-20T23:28:03.673Z,22.47
2018-08-20T23:30:32.213Z,22.47
2018-08-20T23:33:00.759Z,22.51
2018-08-20T23:35:29.394Z,22.49
2018-08-20T23:37:57.979Z,22.55
2018-08-20T23:40:26.564Z,22.55
2018-08-20T23:42:55.256Z,22.59
2018-08-20T23:45:23.891Z,22.63
2018-08-20T23:47:52.454Z,22.67
2018-08-20T23:50:21.061Z,22.64
2018-08-20T23:52:49.611Z,22.67
2018-08-20T23:55:18.323Z,22.65
2018-08-20T23:57:46.877Z,22.63
